Time;durP1;ratioP1;P1;durP2;ratioP2;P2;SDS_P1;SDS_P2;PMS_P1;PMS_P2;Temp;Humidity;BMP_temperature;BMP_pressure;BME280_temperature;BME280_humidity;BME280_pressure;Samples;Min_cycle;Max_cycle;Signal;HPM_P1;HPM_P2
2023/11/09 00:00:37;;;;;;;6.80;2.85;;;;;;;4.37;100.00;98390.28;5050804;28;20014;-78
2023/11/09 00:03:04;;;;;;;7.22;2.92;;;;;;;3.95;100.00;98343.25;5039732;28;20014;-77
2023/11/09 00:05:29;;;;;;;5.80;2.38;;;;;;;3.98;100.00;98375.00;5049934;28;20323;-77
2023/11/09 00:07:54;;;;;;;5.38;2.67;;;;;;;3.92;100.00;98375.69;5049239;28;20040;-78
2023/11/09 00:10:20;;;;;;;12.00;2.83;;;;;;;3.78;100.00;98377.25;5049401;28;20037;-78
2023/11/09 00:12:50;;;;;;;6.90;3.20;;;;;;;3.72;100.00;98365.41;5033934;28;20025;-79
2023/11/09 00:15:16;;;;;;;8.82;3.75;;;;;;;3.58;100.00;98333.97;5044833;28;20041;-80
2023/11/09 00:17:41;;;;;;;7.20;3.08;;;;;;;3.69;100.00;98354.19;5044942;28;20026;-78
2023/11/09 00:20:07;;;;;;;6.72;3.22;;;;;;;3.57;100.00;98326.16;5046155;28;20099;-77
2023/11/09 00:22:34;;;;;;;9.75;3.47;;;;;;;3.74;100.00;98328.56;5051516;28;20035;-77
2023/11/09 00:24:59;;;;;;;9.55;3.30;;;;;;;3.92;100.00;98354.28;5052595;28;20226;-78
2023/11/09 00:27:25;;;;;;;8.25;3.28;;;;;;;4.01;100.00;98353.28;5052576;28;20017;-78
2023/11/09 00:29:50;;;;;;;12.57;4.40;;;;;;;4.03;100.00;98340.53;5047305;28;20025;-76
2023/11/09 00:32:16;;;;;;;10.15;3.80;;;;;;;4.13;100.00;98348.38;5049358;28;20017;-79
2023/11/09 00:34:42;;;;;;;10.80;3.78;;;;;;;4.04;100.00;98344.91;5046620;28;20022;-78
2023/11/09 00:37:08;;;;;;;9.98;3.45;;;;;;;3.93;100.00;98321.19;5049995;28;20021;-78
2023/11/09 00:39:33;;;;;;;18.45;5.25;;;;;;;4.17;100.00;98349.69;5032882;28;20311;-80
2023/11/09 00:41:59;;;;;;;15.23;4.57;;;;;;;4.10;100.00;98332.66;5046517;28;20044;-78
2023/11/09 00:44:24;;;;;;;17.55;5.55;;;;;;;4.16;100.00;98330.09;5054075;28;20025;-76
2023/11/09 00:46:49;;;;;;;17.02;5.22;;;;;;;4.11;100.00;98307.53;5035252;28;20017;-78
2023/11/09 00:49:16;;;;;;;11.75;3.88;;;;;;;4.24;100.00;98331.09;5048475;28;20029;-78
2023/11/09 00:51:42;;;;;;;7.60;3.15;;;;;;;3.94;100.00;98274.69;5052758;28;20016;-77
2023/11/09 00:54:07;;;;;;;6.82;2.95;;;;;;;4.18;100.00;98295.13;5047987;28;20080;-77
2023/11/09 00:56:33;;;;;;;8.18;3.15;;;;;;;4.32;100.00;98323.88;5050075;28;20326;-79
2023/11/09 00:58:58;;;;;;;8.32;3.13;;;;;;;4.35;100.00;98326.19;5034768;28;20017;-76
2023/11/09 01:01:23;;;;;;;8.15;3.40;;;;;;;4.30;100.00;98309.81;5034119;28;20025;-77
2023/11/09 01:03:49;;;;;;;7.57;3.05;;;;;;;4.47;100.00;98325.78;5048124;28;20028;-76
2023/11/09 01:06:15;;;;;;;7.70;2.55;;;;;;;4.48;100.00;98312.22;5056892;28;20059;-79
2023/11/09 01:08:40;;;;;;;3.85;2.25;;;;;;;4.46;100.00;98308.88;5049643;28;20017;-79
2023/11/09 01:11:06;;;;;;;5.97;1.90;;;;;;;4.44;100.00;98318.94;5039731;28;20036;-78
2023/11/09 01:13:33;;;;;;;3.08;2.00;;;;;;;4.22;100.00;98290.25;5044529;28;20014;-78
2023/11/09 01:15:59;;;;;;;4.38;2.00;;;;;;;4.15;100.00;98301.66;5049479;28;20116;-77
2023/11/09 01:18:24;;;;;;;4.32;1.92;;;;;;;3.91;100.00;98267.84;5047850;28;20096;-76
2023/11/09 01:20:50;;;;;;;5.50;1.80;;;;;;;4.09;100.00;98293.53;5046979;28;20032;-77
2023/11/09 01:23:15;;;;;;;4.35;1.88;;;;;;;4.18;100.00;98290.59;5043293;28;20020;-77
2023/11/09 01:25:41;;;;;;;2.95;1.92;;;;;;;4.24;100.00;98294.41;5026872;28;20105;-77
2023/11/09 01:28:07;;;;;;;3.50;1.70;;;;;;;4.31;100.00;98290.03;5053584;28;20453;-77
2023/11/09 01:30:32;;;;;;;5.75;2.08;;;;;;;4.34;100.00;98292.38;5032951;28;20238;-77
2023/11/09 01:32:57;;;;;;;6.15;1.90;;;;;;;4.38;100.00;98276.78;5026666;28;20030;-77
2023/11/09 01:35:23;;;;;;;5.00;1.67;;;;;;;4.31;100.00;98257.91;5024358;28;20030;-78
2023/11/09 01:37:49;;;;;;;4.63;1.77;;;;;;;4.54;100.00;98282.03;5041531;28;20025;-77
2023/11/09 01:40:14;;;;;;;2.80;1.52;;;;;;;4.44;100.00;98264.53;5039289;28;20030;-79
2023/11/09 01:42:43;;;;;;;3.00;1.55;;;;;;;4.45;100.00;98255.47;5052137;28;20088;-78
2023/11/09 01:45:09;;;;;;;3.08;1.42;;;;;;;4.48;100.00;98250.63;5043139;28;20028;-79
2023/11/09 01:47:35;;;;;;;2.42;1.42;;;;;;;4.44;100.00;98230.53;5028156;28;20033;-77
2023/11/09 01:50:04;;;;;;;3.70;1.70;;;;;;;4.51;100.00;98239.53;5043312;28;20088;-77
2023/11/09 01:52:31;;;;;;;6.50;1.83;;;;;;;4.57;100.00;98235.31;5031724;28;20091;-78
2023/11/09 01:54:57;;;;;;;6.95;2.03;;;;;;;4.45;100.00;98218.81;5042675;28;20334;-78
2023/11/09 01:57:24;;;;;;;3.50;1.58;;;;;;;4.59;100.00;98247.50;5032404;28;20034;-77
2023/11/09 01:59:51;;;;;;;6.10;2.03;;;;;;;4.70;100.00;98232.84;5037960;28;20029;-78
2023/11/09 02:02:17;;;;;;;3.78;1.80;;;;;;;4.62;100.00;98211.50;5043025;28;20017;-79
2023/11/09 02:04:44;;;;;;;5.80;1.92;;;;;;;4.82;100.00;98230.56;5043730;28;20075;-76
2023/11/09 02:07:10;;;;;;;4.15;1.83;;;;;;;4.71;100.00;98204.22;5053799;28;20025;-78
2023/11/09 02:09:36;;;;;;;5.57;1.38;;;;;;;4.70;100.00;98197.19;5057364;28;20381;-78
2023/11/09 02:12:02;;;;;;;4.97;1.90;;;;;;;4.87;100.00;98217.47;5054658;28;20029;-77
2023/11/09 02:14:27;;;;;;;2.63;1.30;;;;;;;4.80;100.00;98181.69;5049779;28;20157;-78
2023/11/09 02:16:54;;;;;;;3.47;1.70;;;;;;;4.98;100.00;98206.31;5048568;28;20040;-77
2023/11/09 02:19:19;;;;;;;1.73;1.23;;;;;;;4.94;100.00;98174.69;5046086;28;20133;-79
2023/11/09 02:21:52;;;;;;;3.03;1.50;;;;;;;5.23;100.00;98204.19;5046743;28;20238;-78
2023/11/09 02:24:19;;;;;;;1.80;0.90;;;;;;;5.14;100.00;98185.72;5042286;28;20028;-78
2023/11/09 02:26:44;;;;;;;5.20;1.20;;;;;;;5.26;100.00;98203.00;5043010;28;20017;-78
2023/11/09 02:29:10;;;;;;;4.95;1.73;;;;;;;5.23;100.00;98180.06;5061321;28;20035;-77
2023/11/09 02:31:35;;;;;;;2.65;1.30;;;;;;;5.24;100.00;98164.84;5052346;28;20033;-77
2023/11/09 02:34:03;;;;;;;4.50;1.17;;;;;;;5.29;100.00;98170.44;5027243;28;20026;-77
2023/11/09 02:36:29;;;;;;;1.20;0.98;;;;;;;5.38;100.00;98188.13;5029414;28;20225;-78
2023/11/09 02:38:55;;;;;;;2.10;1.10;;;;;;;5.26;100.00;98171.66;5028541;28;20025;-77
2023/11/09 02:41:20;;;;;;;3.17;1.50;;;;;;;5.39;100.00;98184.41;5023827;28;20026;-78
2023/11/09 02:43:45;;;;;;;2.28;1.10;;;;;;;5.08;100.00;98132.81;5035868;28;20027;-77
2023/11/09 02:46:11;;;;;;;4.35;1.17;;;;;;;5.26;100.00;98165.47;5042201;28;20018;-77
2023/11/09 02:48:37;;;;;;;3.42;1.50;;;;;;;5.14;100.00;98158.91;5038699;28;20028;-76
2023/11/09 02:51:05;;;;;;;3.90;1.05;;;;;;;5.24;100.00;98159.47;5045679;28;20017;-76
2023/11/09 02:53:30;;;;;;;2.55;1.10;;;;;;;5.21;100.00;98155.31;5043722;28;20023;-77
2023/11/09 02:55:55;;;;;;;2.50;0.98;;;;;;;5.22;100.00;98150.78;5037149;28;20022;-76
2023/11/09 02:58:20;;;;;;;2.00;1.08;;;;;;;5.21;100.00;98160.66;5046994;28;20025;-77
2023/11/09 03:00:46;;;;;;;5.30;1.27;;;;;;;5.16;100.00;98155.03;5051966;28;20310;-77
2023/11/09 03:03:11;;;;;;;4.13;1.25;;;;;;;5.18;100.00;98149.47;5049527;28;20017;-77
2023/11/09 03:05:37;;;;;;;7.95;1.13;;;;;;;5.20;100.00;98142.06;5040860;28;20021;-78
2023/11/09 03:08:02;;;;;;;5.95;1.35;;;;;;;4.99;100.00;98108.78;5052392;28;20222;-78
2023/11/09 03:10:28;;;;;;;3.63;1.27;;;;;;;5.21;100.00;98141.03;5052659;28;20314;-78
2023/11/09 03:12:54;;;;;;;6.90;1.52;;;;;;;5.22;100.00;98150.78;5055122;23;20028;-75
2023/11/09 03:15:21;;;;;;;2.95;1.60;;;;;;;5.16;100.00;98151.50;5048074;28;20048;-75
2023/11/09 03:17:47;;;;;;;2.05;0.95;;;;;;;5.19;100.00;98133.19;5054460;28;20029;-77
2023/11/09 03:20:12;;;;;;;4.18;1.20;;;;;;;5.37;100.00;98145.38;5060427;28;20031;-78
2023/11/09 03:22:39;;;;;;;3.00;0.93;;;;;;;5.22;100.00;98140.03;5062860;28;20075;-77
2023/11/09 03:25:06;;;;;;;4.30;1.20;;;;;;;5.19;100.00;98140.41;5039401;28;20097;-76
2023/11/09 03:27:32;;;;;;;1.95;1.08;;;;;;;5.05;100.00;98129.47;5017359;28;20026;-76
2023/11/09 03:29:58;;;;;;;2.95;1.20;;;;;;;4.95;100.00;98126.28;5044118;28;20083;-76
2023/11/09 03:32:23;;;;;;;4.45;1.38;;;;;;;4.84;100.00;98118.66;5038144;28;20042;-77
2023/11/09 03:34:49;;;;;;;4.65;1.20;;;;;;;4.76;100.00;98124.13;5041162;28;20041;-76
2023/11/09 03:37:14;;;;;;;6.88;1.52;;;;;;;4.71;100.00;98137.22;5023345;28;20029;-77
2023/11/09 03:39:39;;;;;;;5.82;1.38;;;;;;;4.61;100.00;98132.97;5052819;28;20018;-76
2023/11/09 03:42:05;;;;;;;3.70;1.20;;;;;;;4.46;100.00;98113.34;5044601;28;20041;-76
2023/11/09 03:44:37;;;;;;;1.88;0.93;;;;;;;4.58;100.00;98116.41;5028416;28;20030;-78
2023/11/09 03:47:03;;;;;;;2.28;1.25;;;;;;;4.69;100.00;98107.09;5034742;28;20108;-77
2023/11/09 03:49:28;;;;;;;2.15;1.27;;;;;;;4.73;100.00;98103.03;5056946;28;20021;-78
2023/11/09 03:51:53;;;;;;;1.55;1.15;;;;;;;4.72;100.00;98110.25;5056737;28;20033;-78
2023/11/09 03:54:19;;;;;;;1.50;1.00;;;;;;;4.63;100.00;98103.31;5040051;28;20032;-79
2023/11/09 03:56:44;;;;;;;3.47;1.42;;;;;;;4.52;100.00;98117.97;5039928;28;20033;-79
2023/11/09 03:59:09;;;;;;;2.67;1.30;;;;;;;4.38;100.00;98105.41;5044889;28;20025;-77
2023/11/09 04:01:35;;;;;;;1.27;0.85;;;;;;;4.30;100.00;98097.44;5026020;28;20365;-75
2023/11/09 04:04:01;;;;;;;2.15;1.50;;;;;;;4.36;100.00;98110.09;5042193;28;20032;-78
2023/11/09 04:06:27;;;;;;;4.85;1.50;;;;;;;4.45;100.00;98116.19;5030954;28;20091;-77
2023/11/09 04:08:52;;;;;;;4.47;1.33;;;;;;;4.46;100.00;98108.00;5040656;28;20041;-76
2023/11/09 04:11:18;;;;;;;2.42;1.10;;;;;;;4.45;100.00;98100.94;5041963;28;20096;-77
2023/11/09 04:13:44;;;;;;;3.97;1.23;;;;;;;4.41;100.00;98097.00;5042050;28;20025;-76
2023/11/09 04:16:09;;;;;;;2.22;1.27;;;;;;;4.39;100.00;98091.81;5043056;28;20025;-76
2023/11/09 04:18:36;;;;;;;1.95;1.15;;;;;;;4.44;100.00;98098.47;5025993;28;20088;-76
2023/11/09 04:21:03;;;;;;;2.53;1.40;;;;;;;4.41;100.00;98086.28;5047016;28;20310;-77
2023/11/09 04:23:28;;;;;;;4.53;1.10;;;;;;;4.43;100.00;98084.25;5027234;28;20025;-77
2023/11/09 04:25:53;;;;;;;2.60;1.33;;;;;;;4.46;100.00;98086.56;5030881;28;20021;-77
2023/11/09 04:28:19;;;;;;;2.45;1.20;;;;;;;4.42;100.00;98084.44;5036176;28;20057;-76
2023/11/09 04:30:45;;;;;;;1.88;1.10;;;;;;;4.50;100.00;98093.22;5051610;28;20040;-78
2023/11/09 04:33:11;;;;;;;5.28;1.33;;;;;;;4.47;100.00;98074.00;5039973;28;20041;-76
2023/11/09 04:35:36;;;;;;;2.15;1.02;;;;;;;4.51;100.00;98088.72;5054913;28;20025;-78
2023/11/09 04:38:02;;;;;;;2.08;1.27;;;;;;;4.50;100.00;98087.84;5035691;28;20014;-77
2023/11/09 04:40:28;;;;;;;1.77;1.10;;;;;;;4.45;100.00;98084.88;5055223;28;20024;-75
2023/11/09 04:42:56;;;;;;;4.28;1.80;;;;;;;4.28;100.00;98070.84;5055842;28;20018;-75
2023/11/09 04:45:22;;;;;;;4.93;1.52;;;;;;;4.30;100.00;98070.66;5056765;28;20029;-76
2023/11/09 04:47:55;;;;;;;2.22;1.20;;;;;;;4.36;100.00;98070.75;5053400;28;20021;-75
2023/11/09 04:50:27;;;;;;;3.05;1.20;;;;;;;4.44;100.00;98079.72;5043172;28;20017;-74
2023/11/09 04:53:03;;;;;;;3.35;1.30;;;;;;;4.34;100.00;98059.38;5041348;28;20136;-75
2023/11/09 04:55:32;;;;;;;4.32;1.10;;;;;;;4.48;100.00;98063.13;5044350;28;20025;-75
2023/11/09 05:08:55;;;;;;;2.10;1.00;;;;;;;4.30;100.00;98031.31;5040560;28;20075;-77
2023/11/09 05:11:20;;;;;;;2.83;1.00;;;;;;;4.37;100.00;98042.13;5038041;28;20044;-77
2023/11/09 05:13:46;;;;;;;2.05;1.05;;;;;;;4.42;100.00;98047.75;5030157;28;20322;-77
2023/11/09 05:16:12;;;;;;;4.13;1.40;;;;;;;4.40;100.00;98033.72;5025622;28;20392;-75
2023/11/09 05:18:43;;;;;;;2.58;1.20;;;;;;;4.35;100.00;98041.50;5037919;28;20085;-77
2023/11/09 05:21:08;;;;;;;3.97;1.15;;;;;;;4.46;100.00;98032.19;5047251;28;20025;-76
2023/11/09 05:23:34;;;;;;;2.08;1.08;;;;;;;4.47;100.00;98042.69;5019212;28;20020;-79
2023/11/09 05:26:00;;;;;;;5.20;1.30;;;;;;;4.39;100.00;98034.75;5028183;28;20017;-78
2023/11/09 05:28:25;;;;;;;6.03;1.83;;;;;;;4.46;100.00;98035.69;5028115;28;20022;-76
2023/11/09 05:30:51;;;;;;;7.70;2.33;;;;;;;4.58;100.00;98034.22;5036482;28;20129;-77
2023/11/09 05:33:19;;;;;;;11.45;2.10;;;;;;;4.77;100.00;98040.03;5025703;28;20030;-79
2023/11/09 05:35:45;;;;;;;4.40;1.95;;;;;;;4.87;100.00;98023.66;5021980;28;20024;-75
2023/11/09 05:38:10;;;;;;;5.72;1.88;;;;;;;4.98;100.00;98016.00;5044040;28;20029;-80
2023/11/09 05:40:36;;;;;;;2.67;1.45;;;;;;;5.21;100.00;98031.09;5028224;28;20025;-78
2023/11/09 05:43:01;;;;;;;2.38;1.33;;;;;;;5.28;100.00;98021.28;5038917;28;20265;-79
2023/11/09 05:45:27;;;;;;;4.45;1.48;;;;;;;5.28;100.00;98000.66;5027510;28;20056;-81
2023/11/09 05:47:52;;;;;;;4.80;1.58;;;;;;;5.44;100.00;98018.38;5022332;28;20024;-79
2023/11/09 05:50:17;;;;;;;3.15;1.17;;;;;;;5.56;100.00;98012.53;5024684;28;20025;-80
2023/11/09 05:52:43;;;;;;;2.58;1.17;;;;;;;5.65;100.00;98006.00;5028074;28;20021;-79
2023/11/09 05:55:10;;;;;;;4.43;2.03;;;;;;;5.73;100.00;98016.59;5028170;28;20029;-80
2023/11/09 05:57:37;;;;;;;7.97;1.52;;;;;;;5.67;100.00;97999.41;5037222;28;20025;-79
2023/11/09 06:00:05;;;;;;;5.57;1.52;;;;;;;5.80;100.00;98009.44;5017634;28;20079;-77
2023/11/09 06:02:31;;;;;;;1.92;1.17;;;;;;;5.80;100.00;98001.41;5043541;28;20052;-78
2023/11/09 06:04:56;;;;;;;3.42;1.45;;;;;;;5.87;100.00;98018.41;5030044;28;20029;-77
2023/11/09 06:07:22;;;;;;;2.00;1.08;;;;;;;5.86;100.00;98014.03;5044862;28;20338;-78
2023/11/09 06:09:48;;;;;;;2.55;1.20;;;;;;;5.88;100.00;98006.63;5026230;28;20229;-77
2023/11/09 06:12:15;;;;;;;5.97;1.40;;;;;;;5.97;100.00;98004.66;5020396;28;20033;-79
2023/11/09 06:14:41;;;;;;;3.00;1.42;;;;;;;5.90;100.00;97993.03;5044173;28;20017;-79
2023/11/09 06:17:07;;;;;;;5.18;1.52;;;;;;;5.97;100.00;98009.19;5027183;28;20029;-79
2023/11/09 06:19:33;;;;;;;2.28;1.15;;;;;;;5.86;100.00;97989.88;5041838;28;20025;-76
2023/11/09 06:21:58;;;;;;;5.60;1.77;;;;;;;5.98;100.00;98000.13;5014228;28;20013;-78
2023/11/09 06:24:23;;;;;;;6.10;1.17;;;;;;;5.93;100.00;97998.00;5045871;28;20051;-79
2023/11/09 06:26:53;;;;;;;2.38;1.10;;;;;;;5.81;100.00;97975.38;5036525;28;20022;-77
2023/11/09 06:29:18;;;;;;;;;;;;;;;5.99;100.00;97991.06;5030045;28;20214;-77
2023/11/09 06:31:43;;;;;;;4.22;1.00;;;;;;;5.99;100.00;97991.06;5023625;28;19908;-75
2023/11/09 06:34:14;;;;;;;2.53;1.38;;;;;;;5.98;100.00;97994.78;5022566;28;20012;-78
2023/11/09 06:36:43;;;;;;;2.65;1.30;;;;;;;5.99;100.00;97980.31;5030818;28;20041;-79
2023/11/09 06:39:09;;;;;;;3.63;1.30;;;;;;;6.10;100.00;97986.00;5022690;28;20079;-77
2023/11/09 06:41:37;;;;;;;4.45;1.40;;;;;;;6.15;100.00;97988.06;5028570;28;20392;-78
2023/11/09 06:44:02;;;;;;;3.97;1.90;;;;;;;6.18;100.00;97985.00;5028051;28;20036;-77
2023/11/09 06:46:27;;;;;;;3.72;1.17;;;;;;;6.29;100.00;97992.53;5011267;28;20017;-78
2023/11/09 06:48:53;;;;;;;3.60;1.80;;;;;;;6.33;100.00;97991.09;5020097;28;20361;-80
2023/11/09 06:51:18;;;;;;;4.35;1.70;;;;;;;6.44;100.00;97995.09;5037002;28;20325;-77
2023/11/09 06:53:44;;;;;;;2.50;1.35;;;;;;;6.47;100.00;97988.50;5042604;28;20197;-80
2023/11/09 06:56:10;;;;;;;3.60;1.38;;;;;;;6.57;100.00;97991.66;5010024;28;20021;-75
2023/11/09 06:58:35;;;;;;;1.50;1.10;;;;;;;6.88;100.00;97985.00;5034408;28;20021;-75
2023/11/09 07:04:53;;;;;;;2.85;1.10;;;;;;;7.36;100.00;97991.19;5167085;27;20606;-56
2023/11/09 07:07:18;;;;;;;2.78;1.30;;;;;;;7.47;100.00;97981.69;5134228;27;20540;-59
2023/11/09 07:09:44;;;;;;;3.42;0.93;;;;;;;7.72;100.00;97981.94;5133962;27;20019;-63
2023/11/09 07:12:09;;;;;;;2.20;1.13;;;;;;;7.86;100.00;97989.00;5145354;27;20029;-64
2023/11/09 07:14:36;;;;;;;4.90;1.80;;;;;;;7.94;100.00;97990.69;5127511;27;20019;-61
2023/11/09 07:17:06;;;;;;;3.75;1.20;;;;;;;7.99;100.00;97988.19;5125366;27;20576;-62
2023/11/09 07:19:35;;;;;;;3.85;1.15;;;;;;;7.95;100.00;98000.41;5132042;27;20126;-62
2023/11/09 07:22:01;;;;;;;2.65;1.20;;;;;;;7.97;100.00;97998.34;5140419;27;20045;-64
2023/11/09 07:24:29;;;;;;;2.17;1.00;;;;;;;7.88;100.00;98000.38;5128562;27;20046;-64
2023/11/09 07:26:55;;;;;;;7.68;1.10;;;;;;;7.95;100.00;98000.41;5139953;27;20011;-62
2023/11/09 07:29:20;;;;;;;2.00;0.93;;;;;;;7.79;100.00;98004.31;5141265;27;20038;-64
2023/11/09 07:31:45;;;;;;;2.50;1.02;;;;;;;7.62;100.00;98003.91;5135358;27;20466;-64
2023/11/09 07:34:11;;;;;;;1.85;1.02;;;;;;;7.41;100.00;98006.72;5130099;27;20027;-64
2023/11/09 07:36:36;;;;;;;3.95;1.15;;;;;;;7.17;100.00;98003.53;5132040;27;20094;-62
2023/11/09 07:39:05;;;;;;;4.35;1.15;;;;;;;7.10;100.00;98010.78;5138511;27;20015;-62
2023/11/09 07:41:30;;;;;;;3.30;1.23;;;;;;;7.07;100.00;98015.69;5130984;27;20031;-64
2023/11/09 07:43:56;;;;;;;3.38;1.13;;;;;;;7.12;100.00;98040.97;5133951;27;20037;-62
2023/11/09 07:46:21;;;;;;;3.38;1.60;;;;;;;7.03;100.00;98034.94;5129012;27;20058;-62
2023/11/09 07:48:47;;;;;;;5.13;1.40;;;;;;;6.85;100.00;98050.75;5128895;27;20462;-62
2023/11/09 07:51:13;;;;;;;6.38;1.70;;;;;;;6.48;100.00;98060.03;5127921;27;20082;-61
2023/11/09 07:53:39;;;;;;;3.28;1.52;;;;;;;6.10;100.00;98069.25;5131931;27;20023;-61
2023/11/09 07:56:06;;;;;;;3.25;1.85;;;;;;;5.82;100.00;98092.47;5150024;27;20024;-61
2023/11/09 07:58:31;;;;;;;3.90;1.80;;;;;;;5.66;100.00;98090.88;5135440;27;20130;-63
2023/11/09 08:00:57;;;;;;;8.25;1.75;;;;;;;5.61;100.00;98102.16;5139856;27;20490;-63
2023/11/09 08:03:23;;;;;;;4.18;1.75;;;;;;;5.59;100.00;98084.59;5130035;27;20022;-61
2023/11/09 08:05:48;;;;;;;5.25;1.95;;;;;;;5.56;100.00;98085.78;5134935;27;20037;-54
2023/11/09 08:08:16;;;;;;;4.20;1.70;;;;;;;5.65;100.00;98081.13;5136249;27;20019;-56
2023/11/09 08:10:41;;;;;;;2.78;1.70;;;;;;;5.78;100.00;98089.31;5134495;27;20449;-61
2023/11/09 08:13:07;;;;;;;4.05;1.80;;;;;;;6.02;100.00;98071.22;5134618;27;20019;-54
2023/11/09 08:15:35;;;;;;;3.63;1.63;;;;;;;6.07;100.00;98068.78;5120639;27;20027;-63
2023/11/09 08:18:02;;;;;;;4.53;1.63;;;;;;;6.17;100.00;98071.16;5117285;27;20075;-63
2023/11/09 08:20:29;;;;;;;5.85;1.98;;;;;;;6.24;100.00;98072.88;5147785;27;20023;-62
2023/11/09 08:22:56;;;;;;;6.53;2.45;;;;;;;6.28;100.00;98076.81;5138670;27;20529;-61
2023/11/09 08:25:23;;;;;;;5.65;2.08;;;;;;;6.37;100.00;98072.16;5124788;27;20086;-64
2023/11/09 08:27:51;;;;;;;1.95;1.50;;;;;;;6.38;100.00;98076.50;5117453;27;20044;-61
2023/11/09 08:30:19;;;;;;;2.45;1.40;;;;;;;6.44;100.00;98070.31;5121350;27;20042;-62
2023/11/09 08:32:48;;;;;;;5.28;1.58;;;;;;;6.58;100.00;98073.97;5118327;27;20019;-61
2023/11/09 08:35:15;;;;;;;5.28;1.63;;;;;;;6.63;100.00;98081.41;5131869;27;20167;-64
2023/11/09 08:37:41;;;;;;;4.32;1.42;;;;;;;6.63;100.00;98076.03;5126246;27;20126;-61
2023/11/09 08:40:27;;;;;;;4.45;1.60;;;;;;;6.68;100.00;98081.66;5114149;27;20134;-63
2023/11/09 08:42:53;;;;;;;5.10;1.48;;;;;;;6.79;100.00;98079.28;5118019;27;20047;-63
2023/11/09 08:45:27;;;;;;;7.00;1.52;;;;;;;6.82;100.00;98080.75;5117965;27;20055;-64
2023/11/09 08:47:53;;;;;;;1.75;1.00;;;;;;;6.88;100.00;98076.44;5127064;27;20057;-61
2023/11/09 08:50:21;;;;;;;3.72;1.45;;;;;;;6.91;100.00;98071.47;5126345;27;20027;-63
2023/11/09 08:52:48;;;;;;;2.53;1.10;;;;;;;6.90;100.00;98082.44;5132881;27;20358;-62
2023/11/09 08:55:14;;;;;;;2.40;1.10;;;;;;;6.90;100.00;98080.56;5122942;27;20015;-62
2023/11/09 08:57:40;;;;;;;2.33;1.20;;;;;;;6.91;100.00;98087.59;5117214;27;20023;-61
2023/11/09 09:00:12;;;;;;;3.45;1.67;;;;;;;6.91;100.00;98084.09;5127549;27;20030;-62
2023/11/09 09:02:49;;;;;;;4.10;1.25;;;;;;;6.96;100.00;98089.72;5128540;27;20031;-62
2023/11/09 09:05:17;;;;;;;3.67;1.83;;;;;;;6.99;100.00;98081.25;5134711;27;20145;-55
2023/11/09 09:07:44;;;;;;;2.42;1.42;;;;;;;7.05;100.00;98082.31;5129028;27;20063;-55
2023/11/09 09:10:15;;;;;;;3.90;1.50;;;;;;;7.11;100.00;98079.66;5124548;27;20031;-55
2023/11/09 09:12:42;;;;;;;3.58;1.38;;;;;;;7.16;100.00;98066.44;5082038;22;20049;-82
2023/11/09 09:15:12;;;;;;;2.78;1.33;;;;;;;7.24;100.00;98068.13;5045836;28;20267;-81
2023/11/09 09:17:42;;;;;;;2.17;1.30;;;;;;;7.39;100.00;98057.25;5055962;28;20025;-80
2023/11/09 09:20:11;;;;;;;;;;;;;;;7.58;100.00;98055.66;5045658;28;20018;-78
2023/11/09 09:22:37;;;;;;;1.92;1.10;;;;;;;7.58;100.00;98047.56;5044681;28;19913;-81
2023/11/09 09:25:02;;;;;;;4.60;1.52;;;;;;;7.61;100.00;98044.47;5043584;28;20024;-79
2023/11/09 09:27:28;;;;;;;6.97;3.15;;;;;;;7.65;100.00;98048.41;5050845;28;20021;-77
2023/11/09 09:29:54;;;;;;;5.40;2.00;;;;;;;7.73;100.00;98055.47;5042998;28;20132;-80
2023/11/09 09:32:20;;;;;;;9.88;2.53;;;;;;;7.69;100.00;98038.88;5048590;28;20096;-75
2023/11/09 09:34:46;;;;;;;6.15;2.38;;;;;;;7.80;100.00;98054.44;5042407;28;20025;-76
2023/11/09 09:37:14;;;;;;;2.75;1.45;;;;;;;7.72;100.00;98060.00;5046091;28;20029;-79
2023/11/09 09:39:41;;;;;;;1.67;1.15;;;;;;;7.53;100.00;98010.47;5044481;28;20029;-77
2023/11/09 09:42:08;;;;;;;4.15;1.45;;;;;;;7.79;100.00;98047.41;5044675;28;20017;-80
2023/11/09 09:44:36;;;;;;;7.28;1.80;;;;;;;7.77;100.00;98043.25;5042977;28;20104;-75
2023/11/09 09:47:01;;;;;;;4.57;1.38;;;;;;;7.82;100.00;98036.22;5045109;28;20039;-78
2023/11/09 09:49:27;;;;;;;3.20;1.60;;;;;;;7.84;100.00;98027.94;5049451;28;20214;-74
2023/11/09 09:51:55;;;;;;;3.97;1.83;;;;;;;7.87;100.00;98022.97;5050490;28;20028;-73
2023/11/09 09:54:20;;;;;;;9.38;1.80;;;;;;;7.95;100.00;98023.81;5052989;28;20330;-79
2023/11/09 09:56:47;;;;;;;7.00;2.20;;;;;;;8.08;100.00;98034.59;5044812;28;20029;-82
2023/11/09 09:59:13;;;;;;;6.55;2.70;;;;;;;8.11;100.00;98028.78;5046111;28;20044;-82
2023/11/09 10:01:48;;;;;;;4.60;1.60;;;;;;;8.23;100.00;98034.41;5044660;28;20179;-82
2023/11/09 10:04:14;;;;;;;8.00;1.70;;;;;;;8.25;100.00;98013.44;5041970;28;20025;-76
2023/11/09 10:06:40;;;;;;;6.20;1.98;;;;;;;8.51;100.00;98026.13;5042022;28;20091;-76
2023/11/09 10:09:07;;;;;;;4.15;1.90;;;;;;;8.65;100.00;98018.84;5038031;28;20017;-74
2023/11/09 10:11:35;;;;;;;3.28;1.67;;;;;;;8.69;100.00;98010.13;5042965;28;20029;-74
2023/11/09 10:14:03;;;;;;;2.97;1.30;;;;;;;8.74;100.00;98020.28;5042036;28;20017;-74
2023/11/09 10:16:32;;;;;;;2.95;1.05;;;;;;;8.87;100.00;98005.94;5046914;28;20033;-75
2023/11/09 10:19:02;;;;;;;2.38;1.23;;;;;;;8.87;100.00;98005.94;5045241;28;20203;-74
2023/11/09 10:21:30;;;;;;;3.13;1.20;;;;;;;8.72;100.00;97980.06;5041562;28;20135;-75
2023/11/09 10:23:58;;;;;;;3.27;1.33;;;;;;;8.93;100.00;98003.22;5042651;28;20033;-74
2023/11/09 10:26:40;;;;;;;1.92;1.02;;;;;;;9.13;100.00;97999.63;5042503;28;20065;-74
2023/11/09 10:29:07;;;;;;;1.83;0.90;;;;;;;9.46;100.00;97999.47;5047609;28;20147;-74
2023/11/09 10:31:32;;;;;;;3.63;1.23;;;;;;;9.50;100.00;97972.84;5041110;28;20071;-74
2023/11/09 10:33:58;;;;;;;4.38;1.40;;;;;;;9.58;100.00;97981.53;5041503;28;20017;-74
2023/11/09 10:36:23;;;;;;;2.95;1.23;;;;;;;9.64;100.00;97993.31;5047928;28;20024;-74
2023/11/09 10:38:48;;;;;;;5.32;1.55;;;;;;;9.72;100.00;97976.88;5059186;28;20036;-74
2023/11/09 10:41:17;;;;;;;2.33;1.30;;;;;;;9.84;100.00;97985.09;5047556;28;20014;-74
2023/11/09 10:43:45;;;;;;;2.75;1.50;;;;;;;10.04;100.00;97985.78;5042569;28;20052;-74
2023/11/09 10:46:15;;;;;;;5.95;1.40;;;;;;;10.27;100.00;97954.59;5048159;28;20050;-74
2023/11/09 10:48:44;;;;;;;4.25;1.60;;;;;;;10.99;100.00;97970.31;5061036;28;20233;-74
2023/11/09 10:51:11;;;;;;;4.00;1.73;;;;;;;11.44;100.00;97970.78;5040527;28;20017;-74
2023/11/09 10:53:37;;;;;;;3.00;1.60;;;;;;;11.40;100.00;97962.28;5042245;28;20036;-74
2023/11/09 10:56:09;;;;;;;3.67;1.60;;;;;;;11.28;100.00;97963.28;5041340;28;20032;-73
2023/11/09 10:58:38;;;;;;;3.08;1.20;;;;;;;11.06;100.00;97958.38;5042335;28;20341;-73
2023/11/09 11:01:06;;;;;;;3.00;1.38;;;;;;;11.26;100.00;97957.28;5041931;28;20025;-73
2023/11/09 11:03:38;;;;;;;2.38;1.20;;;;;;;11.43;100.00;97952.06;5044982;28;20026;-73
2023/11/09 11:06:09;;;;;;;2.17;1.15;;;;;;;11.91;100.00;97945.75;5036088;28;20144;-73
2023/11/09 11:08:49;;;;;;;1.77;1.10;;;;;;;12.19;100.00;97942.38;5047316;28;20092;-74
2023/11/09 11:11:24;;;;;;;1.70;0.80;;;;;;;13.14;100.00;97938.47;5042257;28;20364;-74
2023/11/09 11:13:57;;;;;;;2.42;0.98;;;;;;;14.72;100.00;97926.75;5042043;28;20036;-76
2023/11/09 11:16:36;;;;;;;2.13;1.10;;;;;;;15.45;100.00;97930.06;5040350;28;20033;-73
2023/11/09 11:19:35;;;;;;;2.45;0.90;;;;;;;18.10;97.91;97929.97;5040990;28;20022;-72
2023/11/09 11:22:33;;;;;;;3.42;1.08;;;;;;;18.79;88.35;97911.28;5040070;28;20080;-72
2023/11/09 11:25:02;;;;;;;1.60;0.70;;;;;;;17.63;82.34;97917.31;5040266;28;20028;-73
2023/11/09 11:27:35;;;;;;;3.28;1.33;;;;;;;16.25;91.96;97916.66;5033480;28;20204;-72
2023/11/09 11:30:25;;;;;;;6.43;2.38;;;;;;;15.32;100.00;97905.94;5033434;28;20093;-74
2023/11/09 11:32:56;;;;;;;1.95;0.95;;;;;;;14.96;100.00;97897.38;5040774;28;20021;-72
2023/11/09 11:35:43;;;;;;;1.40;1.00;;;;;;;14.85;100.00;97890.97;5039302;28;20103;-72
2023/11/09 11:38:32;;;;;;;2.83;1.50;;;;;;;14.15;100.00;97908.75;5046378;28;20018;-72
2023/11/09 11:41:04;;;;;;;7.65;1.30;;;;;;;13.22;100.00;97907.38;5046488;28;20025;-73
2023/11/09 11:43:50;;;;;;;1.45;0.85;;;;;;;12.79;100.00;97911.41;5043821;28;20096;-72
2023/11/09 11:46:18;;;;;;;1.60;0.90;;;;;;;12.53;100.00;97910.03;5038837;28;20021;-72
2023/11/09 11:48:48;;;;;;;9.15;2.78;;;;;;;12.31;100.00;97902.50;5043052;28;20053;-73